createdAt,value
2023-02-19T00:00:14.345Z,3.85
2023-02-19T00:02:40.645Z,2.55
2023-02-19T00:05:07.038Z,3.45
2023-02-19T00:07:33.379Z,3.58
2023-02-19T00:09:59.694Z,4.03
2023-02-19T00:12:26.021Z,3.00
2023-02-19T00:14:52.319Z,2.75
2023-02-19T00:17:18.654Z,3.75
2023-02-19T00:19:44.983Z,4.70
2023-02-19T00:22:11.314Z,3.40
2023-02-19T00:24:37.625Z,4.87
2023-02-19T00:27:03.970Z,4.32
2023-02-19T00:29:30.309Z,3.05
2023-02-19T00:31:56.762Z,4.93
2023-02-19T00:34:23.171Z,3.12
2023-02-19T00:36:49.490Z,2.40
2023-02-19T00:39:16.069Z,2.72
2023-02-19T00:41:42.568Z,3.95
2023-02-19T00:44:08.876Z,3.30
2023-02-19T00:46:35.214Z,3.22
2023-02-19T00:49:01.563Z,4.93
2023-02-19T00:51:27.884Z,2.65
2023-02-19T00:53:54.212Z,3.70
2023-02-19T00:56:20.533Z,3.78
2023-02-19T00:58:46.868Z,5.03
2023-02-19T01:01:13.319Z,4.10
2023-02-19T01:03:39.775Z,3.17
2023-02-19T01:06:06.177Z,3.97
2023-02-19T01:08:32.765Z,3.22
2023-02-19T01:10:59.135Z,2.92
2023-02-19T01:13:25.441Z,4.80
2023-02-19T01:15:51.837Z,5.00
2023-02-19T01:18:18.188Z,2.62
2023-02-19T01:20:44.495Z,4.57
2023-02-19T01:23:10.807Z,4.03
2023-02-19T01:25:37.231Z,2.28
2023-02-19T01:28:03.545Z,3.53
2023-02-19T01:30:29.906Z,2.50
2023-02-19T01:32:56.230Z,2.72
2023-02-19T01:35:23.080Z,2.20
2023-02-19T01:37:49.419Z,4.15
2023-02-19T01:40:15.743Z,3.42
2023-02-19T01:42:42.063Z,2.72
2023-02-19T01:45:08.377Z,2.30
2023-02-19T01:47:34.716Z,3.65
2023-02-19T01:50:01.034Z,3.40
2023-02-19T01:52:27.374Z,2.78
2023-02-19T01:54:53.686Z,3.15
2023-02-19T01:57:20.007Z,5.40
2023-02-19T01:59:46.319Z,2.80
2023-02-19T02:02:12.641Z,3.67
2023-02-19T02:04:38.951Z,5.35
2023-02-19T02:07:25.246Z,2.97
2023-02-19T02:10:10.183Z,3.47
2023-02-19T02:12:36.492Z,3.20
2023-02-19T02:15:02.808Z,2.50
2023-02-19T02:17:29.198Z,2.62
2023-02-19T02:19:55.526Z,3.35
2023-02-19T02:22:21.865Z,3.40
2023-02-19T02:24:48.222Z,2.85
2023-02-19T02:27:14.519Z,2.37
2023-02-19T02:29:40.841Z,2.42
2023-02-19T02:32:07.377Z,2.67
2023-02-19T02:34:33.728Z,2.05
2023-02-19T02:37:00.053Z,4.07
2023-02-19T02:39:26.413Z,2.05
2023-02-19T02:42:12.728Z,2.72
2023-02-19T02:44:39.072Z,1.80
2023-02-19T02:47:05.406Z,2.20
2023-02-19T02:49:31.705Z,1.87
2023-02-19T02:51:58.025Z,3.00
2023-02-19T02:54:43.352Z,1.45
2023-02-19T02:57:09.766Z,1.75
2023-02-19T02:59:36.094Z,1.98
2023-02-19T03:02:11.603Z,2.33
2023-02-19T03:04:38.004Z,1.42
2023-02-19T03:07:04.325Z,2.83
2023-02-19T03:09:30.680Z,1.40
2023-02-19T03:12:15.929Z,1.33
2023-02-19T03:15:00.844Z,1.90
2023-02-19T03:17:45.990Z,2.65
2023-02-19T03:20:12.318Z,2.17
2023-02-19T03:22:38.634Z,2.75
2023-02-19T03:25:23.910Z,1.60
2023-02-19T03:27:50.210Z,1.58
2023-02-19T03:30:16.618Z,1.02
2023-02-19T03:32:42.988Z,1.10
2023-02-19T03:35:09.302Z,1.17
2023-02-19T03:37:35.622Z,1.30
2023-02-19T03:40:01.979Z,1.25
2023-02-19T03:42:28.302Z,1.40
2023-02-19T03:44:54.646Z,2.10
2023-02-19T03:47:20.977Z,1.30
2023-02-19T03:49:49.093Z,1.77
2023-02-19T03:52:15.534Z,1.23
2023-02-19T03:54:41.864Z,2.33
2023-02-19T03:57:08.201Z,1.60
2023-02-19T03:59:34.539Z,1.48
2023-02-19T04:02:00.870Z,1.40
2023-02-19T04:04:27.291Z,1.40
2023-02-19T04:06:53.659Z,1.45
2023-02-19T04:09:19.966Z,1.05
2023-02-19T04:11:46.278Z,0.93
2023-02-19T04:14:12.601Z,1.17
2023-02-19T04:16:38.995Z,1.25
2023-02-19T04:19:05.361Z,0.70
2023-02-19T04:21:31.669Z,1.20
2023-02-19T04:23:58.016Z,1.00
2023-02-19T04:26:24.318Z,0.70
2023-02-19T04:28:50.660Z,0.77
2023-02-19T04:31:17.068Z,1.70
2023-02-19T04:33:43.477Z,0.80
2023-02-19T04:36:09.810Z,0.60
2023-02-19T04:38:36.141Z,0.52
2023-02-19T04:41:02.457Z,0.60
2023-02-19T04:43:28.839Z,0.60
2023-02-19T04:45:55.179Z,0.70
2023-02-19T04:48:21.564Z,1.23
2023-02-19T04:50:47.854Z,0.57
2023-02-19T04:53:14.194Z,0.43
2023-02-19T04:55:40.522Z,0.68
2023-02-19T04:58:06.888Z,1.45
2023-02-19T05:00:34.200Z,0.70
2023-02-19T05:03:01.098Z,0.68
2023-02-19T05:05:27.571Z,1.17
2023-02-19T05:07:54.261Z,0.50
2023-02-19T05:10:20.582Z,1.00
2023-02-19T05:12:46.905Z,0.75
2023-02-19T05:15:13.206Z,1.27
2023-02-19T05:17:39.528Z,1.05
2023-02-19T05:20:05.849Z,1.23
2023-02-19T05:22:32.219Z,0.80
2023-02-19T05:24:58.572Z,2.08
2023-02-19T05:27:24.900Z,1.52
2023-02-19T05:29:51.278Z,0.73
2023-02-19T05:32:17.630Z,2.05
2023-02-19T05:34:43.968Z,0.90
2023-02-19T05:37:10.346Z,0.85
2023-02-19T05:39:36.671Z,0.77
2023-02-19T05:42:02.991Z,0.68
2023-02-19T05:44:29.298Z,1.12
2023-02-19T05:46:55.622Z,0.70
2023-02-19T05:49:21.940Z,0.40
2023-02-19T05:51:48.254Z,0.52
2023-02-19T05:54:14.574Z,1.60
2023-02-19T05:56:40.884Z,0.85
2023-02-19T05:59:07.937Z,0.50
2023-02-19T06:01:34.245Z,0.47
2023-02-19T06:04:00.610Z,1.25
2023-02-19T06:06:27.008Z,0.50
2023-02-19T06:08:53.328Z,0.50
2023-02-19T06:11:19.635Z,0.50
2023-02-19T06:13:45.972Z,0.60
2023-02-19T06:16:12.386Z,0.65
2023-02-19T06:18:40.726Z,0.70
2023-02-19T06:21:07.028Z,0.60
2023-02-19T06:23:33.344Z,0.73
2023-02-19T06:25:59.637Z,0.60
2023-02-19T06:28:25.953Z,1.02
2023-02-19T06:30:52.266Z,0.57
2023-02-19T06:33:18.594Z,0.73
2023-02-19T06:35:44.925Z,0.85
2023-02-19T06:38:11.247Z,0.70
2023-02-19T06:40:37.574Z,1.10
2023-02-19T06:43:03.930Z,0.40
2023-02-19T06:45:30.263Z,0.70
2023-02-19T06:47:56.629Z,0.50
2023-02-19T06:50:22.958Z,0.50
2023-02-19T06:52:49.362Z,0.70
2023-02-19T06:55:15.703Z,0.82
2023-02-19T06:57:42.033Z,0.70
2023-02-19T07:00:08.370Z,0.60
2023-02-19T07:02:34.729Z,0.70
2023-02-19T07:05:01.016Z,0.82
2023-02-19T07:07:27.327Z,0.70
2023-02-19T07:09:53.642Z,0.75
2023-02-19T07:12:19.967Z,0.70
2023-02-19T07:14:46.290Z,0.80
2023-02-19T07:17:12.607Z,0.70
2023-02-19T07:19:38.945Z,0.85
2023-02-19T07:22:05.255Z,0.80
2023-02-19T07:24:31.573Z,0.73
2023-02-19T07:26:58.051Z,0.82
2023-02-19T07:29:24.350Z,1.10
2023-02-19T07:31:50.727Z,1.45
2023-02-19T07:34:17.117Z,1.30
2023-02-19T07:36:43.458Z,2.10
2023-02-19T07:39:11.745Z,1.27
2023-02-19T07:41:38.082Z,1.00
2023-02-19T07:44:04.401Z,0.80
2023-02-19T07:46:30.769Z,0.77
2023-02-19T07:48:57.162Z,0.98
2023-02-19T07:51:23.564Z,0.98
2023-02-19T07:53:50.596Z,0.90
2023-02-19T07:56:16.947Z,1.10
2023-02-19T07:58:43.340Z,0.82
2023-02-19T08:01:10.269Z,1.02
2023-02-19T08:03:37.030Z,1.98
2023-02-19T08:06:03.368Z,0.73
2023-02-19T08:08:29.688Z,0.80
2023-02-19T08:11:14.785Z,0.90
2023-02-19T08:13:41.118Z,1.23
2023-02-19T08:16:18.262Z,1.70
2023-02-19T08:18:46.564Z,0.90
2023-02-19T08:21:12.894Z,1.23
2023-02-19T08:23:39.252Z,1.05
2023-02-19T08:26:05.626Z,1.37
2023-02-19T08:28:31.994Z,1.25
2023-02-19T08:30:58.333Z,0.95
2023-02-19T08:33:24.681Z,0.90
2023-02-19T08:35:51.013Z,0.90
2023-02-19T08:38:17.380Z,1.10
2023-02-19T08:40:43.872Z,1.10
2023-02-19T08:43:10.176Z,1.40
2023-02-19T08:45:36.500Z,1.12
2023-02-19T08:48:02.818Z,1.15
2023-02-19T08:50:29.139Z,1.20
2023-02-19T08:52:55.536Z,1.77
2023-02-19T08:55:21.860Z,1.12
2023-02-19T08:57:50.324Z,1.00
2023-02-19T09:00:16.944Z,2.65
2023-02-19T09:02:43.279Z,1.70
2023-02-19T09:05:09.725Z,1.00
2023-02-19T09:07:36.050Z,1.15
2023-02-19T09:10:02.377Z,2.30
2023-02-19T09:12:28.681Z,1.50
2023-02-19T09:14:55.637Z,1.65
2023-02-19T09:17:21.957Z,3.05
2023-02-19T09:19:50.613Z,1.33
2023-02-19T09:22:17.310Z,0.82
2023-02-19T09:24:43.779Z,0.60
2023-02-19T09:27:10.907Z,2.85
2023-02-19T09:29:37.238Z,1.10
2023-02-19T09:32:03.750Z,1.00
2023-02-19T09:34:30.125Z,0.80
2023-02-19T09:36:56.472Z,1.87
2023-02-19T09:39:22.793Z,0.60
2023-02-19T09:41:49.169Z,0.95
2023-02-19T09:44:15.497Z,1.27
2023-02-19T09:46:41.823Z,0.70
2023-02-19T09:49:08.134Z,1.08
2023-02-19T09:51:34.495Z,1.83
2023-02-19T09:54:00.853Z,1.00
2023-02-19T09:56:27.202Z,3.47
2023-02-19T09:58:53.744Z,1.00
2023-02-19T10:01:20.094Z,1.10
2023-02-19T10:03:47.152Z,1.48
2023-02-19T10:06:13.504Z,1.87
2023-02-19T10:08:39.834Z,1.77
2023-02-19T10:11:06.780Z,1.33
2023-02-19T10:15:25.324Z,2.15
2023-02-19T10:17:51.673Z,1.20
2023-02-19T10:20:18.522Z,3.15
2023-02-19T10:22:44.854Z,2.95
2023-02-19T10:25:11.172Z,1.27
2023-02-19T10:27:37.515Z,1.55
2023-02-19T10:30:03.890Z,1.27
2023-02-19T10:32:30.788Z,2.20
2023-02-19T10:34:57.127Z,2.10
2023-02-19T10:37:23.470Z,2.67
2023-02-19T10:39:49.945Z,1.08
2023-02-19T10:42:16.328Z,2.03
2023-02-19T10:44:42.716Z,1.20
2023-02-19T10:47:09.042Z,1.90
2023-02-19T10:49:35.623Z,2.33
2023-02-19T10:52:02.525Z,1.23
2023-02-19T10:54:30.262Z,3.40
2023-02-19T10:56:56.744Z,1.40
2023-02-19T10:59:23.082Z,1.98
2023-02-19T11:01:49.416Z,1.33
2023-02-19T11:04:15.782Z,2.62
2023-02-19T11:06:42.164Z,2.25
2023-02-19T11:09:08.510Z,2.35
2023-02-19T11:11:34.899Z,2.35
2023-02-19T11:14:01.214Z,2.05
2023-02-19T11:16:27.596Z,2.65
2023-02-19T11:18:57.037Z,2.55
2023-02-19T11:21:23.655Z,1.20
2023-02-19T11:23:49.997Z,1.20
2023-02-19T11:26:16.336Z,1.80
2023-02-19T11:28:42.648Z,1.83
2023-02-19T11:31:09.186Z,2.70
2023-02-19T11:33:35.724Z,2.60
2023-02-19T11:36:02.067Z,1.80
2023-02-19T11:38:28.450Z,2.37
2023-02-19T11:40:54.851Z,1.35
2023-02-19T11:43:21.149Z,2.30
2023-02-19T11:45:47.466Z,1.90
2023-02-19T11:48:13.845Z,1.17
2023-02-19T11:50:42.706Z,2.75
2023-02-19T11:53:09.007Z,1.30
2023-02-19T11:55:35.389Z,3.00
2023-02-19T11:58:01.725Z,1.65
2023-02-19T12:00:28.149Z,3.53
2023-02-19T12:02:54.638Z,1.60
2023-02-19T12:05:22.000Z,1.77
2023-02-19T12:07:51.586Z,1.92
2023-02-19T12:10:17.898Z,2.08
2023-02-19T12:12:44.233Z,2.83
2023-02-19T12:15:10.567Z,2.12
2023-02-19T12:17:36.892Z,3.17
2023-02-19T12:20:03.226Z,1.20
2023-02-19T12:22:29.628Z,2.45
2023-02-19T12:24:56.001Z,3.17
2023-02-19T12:27:22.335Z,2.75
2023-02-19T12:29:48.679Z,2.90
2023-02-19T12:32:15.692Z,1.60
2023-02-19T12:34:42.001Z,2.45
2023-02-19T12:37:08.317Z,3.03
2023-02-19T12:39:34.629Z,2.78
2023-02-19T12:42:00.981Z,2.83
2023-02-19T12:44:28.681Z,1.52
2023-02-19T12:46:55.003Z,3.42
2023-02-19T12:49:21.322Z,4.45
2023-02-19T12:51:47.672Z,3.12
2023-02-19T12:54:14.045Z,1.62
2023-02-19T12:56:40.356Z,1.35
2023-02-19T12:59:06.761Z,5.32
2023-02-19T13:01:33.185Z,3.60
2023-02-19T13:03:59.559Z,3.28
2023-02-19T13:06:25.912Z,2.47
2023-02-19T13:09:05.901Z,3.47
2023-02-19T13:11:34.160Z,4.50
2023-02-19T13:14:01.446Z,3.42
2023-02-19T13:16:33.094Z,2.20
2023-02-19T13:18:59.524Z,1.40
2023-02-19T13:21:44.749Z,3.50
2023-02-19T13:24:11.070Z,3.58
2023-02-19T13:26:37.392Z,3.00
2023-02-19T13:29:03.694Z,2.55
2023-02-19T13:31:30.111Z,3.25
2023-02-19T13:33:56.473Z,3.72
2023-02-19T13:36:22.802Z,2.22
2023-02-19T13:38:49.194Z,2.17
2023-02-19T13:41:15.538Z,1.83
2023-02-19T13:43:43.008Z,0.85
2023-02-19T13:46:09.417Z,1.77
2023-02-19T13:48:35.798Z,1.60
2023-02-19T13:51:02.109Z,2.95
2023-02-19T13:53:28.428Z,0.82
2023-02-19T13:55:54.894Z,4.57
2023-02-19T13:58:21.227Z,2.35
2023-02-19T14:00:49.311Z,2.78
2023-02-19T14:03:15.787Z,2.97
2023-02-19T14:05:42.107Z,1.73
2023-02-19T14:08:08.449Z,3.67
2023-02-19T14:10:34.884Z,2.65
2023-02-19T14:13:01.203Z,2.80
2023-02-19T14:15:27.554Z,1.85
2023-02-19T14:17:55.343Z,4.87
2023-02-19T14:20:21.757Z,1.35
2023-02-19T14:22:57.080Z,4.70
2023-02-19T14:25:23.384Z,1.45
2023-02-19T14:27:49.729Z,2.58
2023-02-19T14:30:16.069Z,2.30
2023-02-19T14:32:45.148Z,1.65
2023-02-19T14:35:11.584Z,2.45
2023-02-19T14:37:37.909Z,2.83
2023-02-19T14:40:04.241Z,4.35
2023-02-19T14:42:34.104Z,2.97
2023-02-19T14:45:00.411Z,3.20
2023-02-19T14:47:26.745Z,2.20
2023-02-19T14:49:53.057Z,2.85
2023-02-19T14:52:19.453Z,1.95
2023-02-19T14:54:45.827Z,2.40
2023-02-19T14:57:12.227Z,3.25
2023-02-19T14:59:38.574Z,2.08
2023-02-19T15:02:04.886Z,2.12
2023-02-19T15:04:31.580Z,2.40
2023-02-19T15:06:57.920Z,3.45
2023-02-19T15:09:24.223Z,3.92
2023-02-19T15:11:51.242Z,2.80
2023-02-19T15:14:17.557Z,2.83
2023-02-19T15:16:43.862Z,2.65
2023-02-19T15:19:10.190Z,3.42
2023-02-19T15:21:36.523Z,1.58
2023-02-19T15:24:02.831Z,1.77
2023-02-19T15:26:29.205Z,2.95
2023-02-19T15:28:55.578Z,2.80
2023-02-19T15:31:22.020Z,1.60
2023-02-19T15:33:48.405Z,1.60
2023-02-19T15:36:14.728Z,2.20
2023-02-19T15:38:41.064Z,3.05
2023-02-19T15:41:07.613Z,4.32
2023-02-19T15:43:33.956Z,2.12
2023-02-19T15:46:00.343Z,5.05
2023-02-19T15:48:26.662Z,3.67
2023-02-19T15:50:52.994Z,1.58
2023-02-19T15:53:19.342Z,4.57
2023-02-19T15:55:45.667Z,2.17
2023-02-19T15:58:12.041Z,5.65
2023-02-19T16:00:38.369Z,2.95
2023-02-19T16:03:05.641Z,2.00
2023-02-19T16:05:37.094Z,2.72
2023-02-19T16:08:03.409Z,3.58
2023-02-19T16:10:32.600Z,1.98
2023-02-19T16:12:58.948Z,3.00
2023-02-19T16:15:25.270Z,2.75
2023-02-19T16:17:51.854Z,3.67
2023-02-19T16:20:18.187Z,5.43
2023-02-19T16:22:44.603Z,2.22
2023-02-19T16:25:10.933Z,1.73
2023-02-19T16:27:37.269Z,2.58
2023-02-19T16:30:03.630Z,2.87
2023-02-19T16:32:30.141Z,3.67
2023-02-19T16:34:56.562Z,3.37
2023-02-19T16:37:22.909Z,2.62
2023-02-19T16:39:49.231Z,3.97
2023-02-19T16:42:15.642Z,3.00
2023-02-19T16:44:42.006Z,3.10
2023-02-19T16:47:08.346Z,4.10
2023-02-19T16:49:34.670Z,2.05
2023-02-19T16:52:02.673Z,5.03
2023-02-19T16:54:30.488Z,3.75
2023-02-19T16:56:56.836Z,3.05
2023-02-19T16:59:23.200Z,2.30
2023-02-19T17:01:49.504Z,3.83
2023-02-19T17:04:16.083Z,2.58
2023-02-19T17:06:42.618Z,4.85
2023-02-19T17:09:08.955Z,4.60
2023-02-19T17:11:35.271Z,2.70
2023-02-19T17:14:02.312Z,2.62
2023-02-19T17:16:28.672Z,3.37
2023-02-19T17:18:55.099Z,4.03
2023-02-19T17:21:21.403Z,7.07
2023-02-19T17:23:47.751Z,5.90
2023-02-19T17:26:14.054Z,2.72
2023-02-19T17:28:41.489Z,3.55
2023-02-19T17:31:07.899Z,2.78
2023-02-19T17:33:35.502Z,5.68
2023-02-19T17:36:01.850Z,4.47
2023-02-19T17:38:28.689Z,3.20
2023-02-19T17:40:55.013Z,4.55
2023-02-19T17:43:21.337Z,3.80
2023-02-19T17:45:47.704Z,3.37
2023-02-19T17:48:14.125Z,5.57
2023-02-19T17:50:40.452Z,3.83
2023-02-19T17:53:06.777Z,3.90
2023-02-19T17:55:33.749Z,2.92
2023-02-19T17:58:00.096Z,2.80
2023-02-19T18:00:26.514Z,2.85
2023-02-19T18:02:53.070Z,2.28
2023-02-19T18:05:19.454Z,2.17
2023-02-19T18:07:45.763Z,2.83
2023-02-19T18:10:12.194Z,5.60
2023-02-19T18:12:38.514Z,4.55
2023-02-19T18:15:04.856Z,4.07
2023-02-19T18:17:31.199Z,3.55
2023-02-19T18:19:57.545Z,4.62
2023-02-19T18:22:23.888Z,3.75
2023-02-19T18:24:50.189Z,3.78
2023-02-19T18:27:18.517Z,3.60
2023-02-19T18:29:44.860Z,3.47
2023-02-19T18:32:11.259Z,4.35
2023-02-19T18:34:37.576Z,2.72
2023-02-19T18:37:04.080Z,3.20
2023-02-19T18:39:30.415Z,3.58
2023-02-19T18:41:58.226Z,4.10
2023-02-19T18:44:24.544Z,4.20
2023-02-19T18:46:51.040Z,3.90
2023-02-19T18:49:17.387Z,3.42
2023-02-19T18:51:45.116Z,3.87
2023-02-19T18:54:11.588Z,4.00
2023-02-19T18:56:37.903Z,4.70
2023-02-19T18:59:04.434Z,6.07
2023-02-19T19:01:30.986Z,4.30
2023-02-19T19:03:57.400Z,4.05
2023-02-19T19:06:23.806Z,7.05
2023-02-19T19:08:50.155Z,5.47
2023-02-19T19:11:16.572Z,3.45
2023-02-19T19:13:42.933Z,8.00
2023-02-19T19:16:09.254Z,4.78
2023-02-19T19:18:38.222Z,5.47
2023-02-19T19:21:04.535Z,4.00
2023-02-19T19:23:30.845Z,6.22
2023-02-19T19:25:57.140Z,5.32
2023-02-19T19:28:25.441Z,4.50
2023-02-19T19:30:51.845Z,4.97
2023-02-19T19:33:18.171Z,5.30
2023-02-19T19:35:44.476Z,4.75
2023-02-19T19:38:10.794Z,4.05
2023-02-19T19:40:37.379Z,6.72
2023-02-19T19:43:03.710Z,4.62
2023-02-19T19:45:30.078Z,3.33
2023-02-19T19:47:56.389Z,5.22
2023-02-19T19:50:22.761Z,6.50
2023-02-19T19:52:49.095Z,5.00
2023-02-19T19:55:16.461Z,4.45
2023-02-19T19:57:42.955Z,4.90
2023-02-19T20:00:09.372Z,5.50
2023-02-19T20:02:36.153Z,3.67
2023-02-19T20:05:03.136Z,6.47
2023-02-19T20:07:29.526Z,8.30
2023-02-19T20:09:59.477Z,6.87
2023-02-19T20:12:25.842Z,4.60
2023-02-19T20:14:52.157Z,4.28
2023-02-19T20:17:18.474Z,4.68
2023-02-19T20:19:44.809Z,6.05
2023-02-19T20:22:12.269Z,6.30
2023-02-19T20:24:38.595Z,6.22
2023-02-19T20:27:04.897Z,4.12
2023-02-19T20:29:31.301Z,4.57
2023-02-19T20:32:00.039Z,3.47
2023-02-19T20:34:26.539Z,5.57
2023-02-19T20:36:52.925Z,5.07
2023-02-19T20:39:19.360Z,6.97
2023-02-19T20:41:45.700Z,4.90
2023-02-19T20:44:12.019Z,5.43
2023-02-19T20:46:38.344Z,6.20
2023-02-19T20:49:04.679Z,6.78
2023-02-19T20:51:30.973Z,4.12
2023-02-19T20:53:57.290Z,7.28
2023-02-19T20:56:25.396Z,4.82
2023-02-19T20:58:51.696Z,4.55
2023-02-19T21:01:18.236Z,7.57
2023-02-19T21:03:44.572Z,5.85
2023-02-19T21:06:11.256Z,8.15
2023-02-19T21:08:37.808Z,5.45
2023-02-19T21:11:04.156Z,5.40
2023-02-19T21:13:30.483Z,6.12
2023-02-19T21:15:56.836Z,6.03
2023-02-19T21:18:23.165Z,7.25
2023-02-19T21:20:49.472Z,5.97
2023-02-19T21:23:15.810Z,4.37
2023-02-19T21:25:42.153Z,7.72
2023-02-19T21:28:09.773Z,6.75
2023-02-19T21:30:36.148Z,5.82
2023-02-19T21:33:02.634Z,6.40
2023-02-19T21:35:29.368Z,6.75
2023-02-19T21:37:55.698Z,6.53
2023-02-19T21:40:23.540Z,7.28
2023-02-19T21:42:49.862Z,7.60
2023-02-19T22:02:11.596Z,7.12
2023-02-19T22:04:37.911Z,10.02
2023-02-19T22:07:04.235Z,9.15
2023-02-19T22:09:30.579Z,10.02
2023-02-19T22:11:56.894Z,11.00
2023-02-19T22:14:23.246Z,12.27
2023-02-19T22:16:49.684Z,8.80
2023-02-19T22:19:16.039Z,9.95
2023-02-19T22:21:42.362Z,11.82
2023-02-19T22:24:08.673Z,11.40
2023-02-19T22:26:35.001Z,9.32
2023-02-19T22:29:05.891Z,12.55
2023-02-19T22:31:32.290Z,10.55
2023-02-19T22:33:58.640Z,12.02
2023-02-19T22:36:24.994Z,11.98
2023-02-19T22:38:51.334Z,8.65
2023-02-19T22:41:17.677Z,8.75
2023-02-19T22:43:44.000Z,10.05
2023-02-19T22:46:10.495Z,6.97
2023-02-19T22:48:36.955Z,9.25
2023-02-19T22:51:03.262Z,8.45
2023-02-19T22:53:29.582Z,8.27
2023-02-19T22:55:55.895Z,9.07
2023-02-19T22:58:22.302Z,7.32
2023-02-19T23:00:48.618Z,11.93
2023-02-19T23:03:14.980Z,12.70
2023-02-19T23:05:41.306Z,8.68
2023-02-19T23:08:07.624Z,12.20
2023-02-19T23:10:34.436Z,13.62
2023-02-19T23:13:01.037Z,9.80
2023-02-19T23:15:27.354Z,9.30
2023-02-19T23:17:53.669Z,8.70
2023-02-19T23:20:20.026Z,6.18
2023-02-19T23:22:46.340Z,7.53
2023-02-19T23:25:12.880Z,6.20
2023-02-19T23:27:39.203Z,8.35
2023-02-19T23:30:05.602Z,7.70
2023-02-19T23:32:31.942Z,6.78
2023-02-19T23:34:58.248Z,8.07
2023-02-19T23:37:24.630Z,6.97
2023-02-19T23:39:50.935Z,10.23
2023-02-19T23:42:17.284Z,7.68
2023-02-19T23:44:43.593Z,5.50
2023-02-19T23:47:09.896Z,8.63
2023-02-19T23:49:36.200Z,6.20
2023-02-19T23:52:02.500Z,6.93
2023-02-19T23:54:28.850Z,8.18
2023-02-19T23:56:55.192Z,9.85
2023-02-19T23:59:21.491Z,7.07
